createdAt,value
2023-04-02T07:56:01.419Z,22.8174
2023-04-02T07:57:03.368Z,22.8683
2023-04-02T07:58:05.164Z,23.1088
2023-04-02T07:59:07.067Z,23.4153
2023-04-02T08:00:58.267Z,23.8037
2023-04-02T08:07:21.010Z,24.0818
2023-04-02T08:08:22.905Z,23.9165
2023-04-02T08:09:24.810Z,23.7766
2023-04-02T08:10:26.718Z,23.9263
2023-04-02T08:11:29.758Z,23.9900
2023-04-02T08:12:30.543Z,24.0707
2023-04-02T08:13:32.456Z,24.2190
2023-04-02T08:14:34.368Z,24.3844
2023-04-02T08:15:36.620Z,24.5458
2023-04-02T08:16:38.225Z,24.7091
2023-04-02T08:17:40.081Z,24.8517
2023-04-02T08:18:42.071Z,24.9306
2023-04-02T08:19:54.218Z,25.0033
2023-04-02T08:20:45.816Z,25.0392
2023-04-02T08:21:47.739Z,25.0896
2023-04-02T08:22:49.660Z,25.1742
2023-04-02T08:23:51.538Z,25.2144
2023-04-02T08:24:53.469Z,25.2440
2023-04-02T08:25:55.352Z,25.2728
2023-04-02T08:26:57.273Z,25.3250
2023-04-02T08:27:59.174Z,25.3584
2023-04-02T08:29:01.110Z,25.3810
2023-04-02T08:30:02.994Z,25.4184
2023-04-02T08:31:05.054Z,25.4466
2023-04-02T08:32:06.794Z,25.4811
2023-04-02T08:33:08.778Z,25.4940
2023-04-02T08:34:10.633Z,25.5579
2023-04-02T08:35:13.685Z,25.5622
2023-04-02T08:36:14.488Z,25.5708
2023-04-02T08:37:16.359Z,25.6337
2023-04-02T08:38:18.253Z,25.6503
2023-04-02T08:39:20.187Z,25.6518
2023-04-02T08:40:22.085Z,25.7150
2023-04-02T08:41:24.008Z,25.5224
2023-04-02T08:42:25.930Z,25.2586
2023-04-02T08:43:27.882Z,25.2360
2023-04-02T08:44:29.707Z,25.1569
2023-04-02T08:45:31.647Z,25.0464
2023-04-02T08:46:33.539Z,25.0119
2023-04-02T08:47:35.472Z,24.9893
2023-04-02T08:48:37.326Z,24.9610
2023-04-02T08:49:39.329Z,24.6584
2023-04-02T08:50:41.145Z,24.4965
2023-04-02T08:51:43.101Z,24.4407
2023-04-02T08:52:44.953Z,24.4066
2023-04-02T08:53:46.879Z,24.1989
2023-04-02T08:54:48.759Z,24.0504
2023-04-02T08:55:50.682Z,23.7571
2023-04-02T08:56:52.621Z,23.6466
2023-04-02T08:57:54.507Z,23.8090
2023-04-02T08:58:56.440Z,24.0272
2023-04-02T08:59:58.337Z,24.1761
2023-04-02T09:01:00.225Z,24.2342
2023-04-02T09:02:02.268Z,24.3667
2023-04-02T09:03:04.061Z,24.4166
2023-04-02T09:04:05.953Z,24.5323
2023-04-02T09:05:08.020Z,24.5791
2023-04-02T09:06:10.781Z,24.6477
2023-04-02T09:07:11.670Z,24.7054
2023-04-02T09:08:13.594Z,24.7570
2023-04-02T09:09:15.468Z,24.7927
2023-04-02T09:10:17.432Z,24.8550
2023-04-02T09:11:19.312Z,24.8907
2023-04-02T09:12:21.215Z,24.9390
2023-04-02T09:13:23.102Z,24.9536
2023-04-02T09:14:25.021Z,24.9704
2023-04-02T09:15:26.918Z,24.9815
2023-04-02T09:16:28.938Z,25.0049
2023-04-02T09:17:36.913Z,25.0123
2023-04-02T09:18:32.665Z,25.0302
2023-04-02T09:19:34.545Z,25.0606
2023-04-02T09:20:36.473Z,25.0709
2023-04-02T09:21:38.379Z,25.1052
2023-04-02T09:22:40.284Z,25.0894
2023-04-02T09:23:42.168Z,25.0803
2023-04-02T09:24:44.106Z,25.1076
2023-04-02T09:25:54.125Z,25.1068
2023-04-02T09:26:47.915Z,25.1495
2023-04-02T09:27:49.799Z,25.1395
2023-04-02T09:28:51.735Z,25.1994
2023-04-02T09:29:53.625Z,25.2301
2023-04-02T09:30:55.552Z,25.2648
2023-04-02T09:31:57.480Z,25.2432
2023-04-02T09:32:59.398Z,25.2627
2023-04-02T09:34:01.260Z,25.3007
2023-04-02T09:35:07.465Z,25.3241
2023-04-02T09:36:05.098Z,25.3305
2023-04-02T09:37:07.018Z,25.3381
2023-04-02T09:38:08.879Z,25.3601
2023-04-02T09:39:10.815Z,25.3962
2023-04-02T09:40:12.704Z,25.3954
2023-04-02T09:41:14.643Z,25.4047
2023-04-02T09:42:16.554Z,25.4155
2023-04-02T09:43:18.954Z,25.4040
2023-04-02T09:44:20.336Z,25.4283
2023-04-02T09:45:22.306Z,25.4069
2023-04-02T09:46:24.270Z,25.3808
2023-04-02T09:47:26.130Z,25.3751
2023-04-02T09:48:27.977Z,25.4129
2023-04-02T09:49:29.930Z,25.3909
2023-04-02T09:50:31.808Z,25.4038
2023-04-02T09:51:33.745Z,25.3788
2023-04-02T09:52:35.616Z,25.4067
2023-04-02T09:53:37.552Z,25.3977
2023-04-02T09:54:39.434Z,25.3646
2023-04-02T09:55:41.356Z,25.3689
2023-04-02T09:56:43.274Z,25.4063
2023-04-02T09:57:45.185Z,25.4022
2023-04-02T09:58:47.080Z,25.4281
2023-04-02T09:59:49.017Z,25.4123
2023-04-02T10:00:50.914Z,25.4435
2023-04-02T10:01:52.835Z,25.4570
2023-04-02T10:02:54.754Z,25.4422
2023-04-02T10:03:56.720Z,25.4447
2023-04-02T10:04:58.521Z,25.4416
2023-04-02T10:06:00.489Z,25.4546
2023-04-02T10:07:02.358Z,25.4644
2023-04-02T10:08:04.280Z,25.4609
2023-04-02T10:09:06.158Z,25.4476
2023-04-02T10:10:08.076Z,25.4702
2023-04-02T10:11:10.002Z,25.4735
2023-04-02T10:12:11.891Z,25.4722
2023-04-02T10:13:13.810Z,25.4868
2023-04-02T10:14:15.749Z,25.4739
2023-04-02T10:15:17.617Z,25.4938
2023-04-02T10:16:19.637Z,25.4946
2023-04-02T10:17:22.484Z,25.4907
2023-04-02T10:18:23.368Z,25.4895
2023-04-02T10:19:25.261Z,25.4987
2023-04-02T10:20:27.201Z,25.4915
2023-04-02T10:21:29.067Z,25.5084
2023-04-02T10:22:30.992Z,25.5150
2023-04-02T10:23:32.880Z,25.5174
2023-04-02T10:24:34.812Z,25.5291
2023-04-02T10:25:36.903Z,25.5382
2023-04-02T10:26:38.636Z,25.5143
2023-04-02T10:27:40.534Z,25.5334
2023-04-02T10:28:42.451Z,25.5332
2023-04-02T10:29:44.339Z,25.5246
2023-04-02T10:30:46.372Z,25.5059
2023-04-02T10:31:48.150Z,25.5035
2023-04-02T10:32:50.124Z,25.5061
2023-04-02T10:33:51.973Z,25.5090
2023-04-02T10:34:53.933Z,25.5037
2023-04-02T10:35:55.812Z,25.5088
2023-04-02T10:36:57.741Z,25.5022
2023-04-02T10:37:59.608Z,25.5047
2023-04-02T10:39:01.539Z,25.5096
2023-04-02T10:40:03.428Z,25.5143
2023-04-02T10:41:05.352Z,25.5437
2023-04-02T10:42:07.241Z,25.5452
2023-04-02T10:43:09.171Z,25.5160
2023-04-02T10:44:19.603Z,25.5277
2023-04-02T10:45:12.984Z,25.5277
2023-04-02T10:46:14.906Z,25.5256
2023-04-02T10:47:16.826Z,25.5353
2023-04-02T10:48:18.694Z,25.5178
2023-04-02T10:49:20.676Z,25.5258
2023-04-02T10:50:22.524Z,25.5306
2023-04-02T10:51:24.452Z,25.5478
2023-04-02T10:52:26.417Z,25.5476
2023-04-02T10:53:28.274Z,25.5727
2023-04-02T10:54:30.165Z,25.5684
2023-04-02T10:55:32.086Z,25.6056
2023-04-02T10:56:44.042Z,25.6228
2023-04-02T10:57:36.027Z,25.6265
2023-04-02T10:58:37.784Z,25.6512
2023-04-02T10:59:39.712Z,25.6526
2023-04-02T11:00:41.601Z,25.6540
2023-04-02T11:01:43.591Z,25.6834
2023-04-02T11:02:45.500Z,25.6900
2023-04-02T11:03:47.455Z,25.7021
2023-04-02T11:04:49.251Z,25.7046
2023-04-02T11:05:51.182Z,25.7109
2023-04-02T11:06:58.096Z,25.6931
2023-04-02T11:07:54.999Z,25.7115
2023-04-02T11:08:56.885Z,25.7179
2023-04-02T11:09:58.799Z,25.7286
2023-04-02T11:11:01.822Z,25.7405
2023-04-02T11:12:02.652Z,25.7198
2023-04-02T11:13:04.537Z,25.7243
2023-04-02T11:14:06.749Z,25.7154
2023-04-02T11:15:08.341Z,25.7294
2023-04-02T11:16:10.275Z,25.7362
2023-04-02T11:17:12.141Z,25.7491
2023-04-02T11:18:14.094Z,25.7732
2023-04-02T11:19:15.996Z,25.7693
2023-04-02T11:20:17.909Z,25.7705
2023-04-02T11:21:19.807Z,25.8015
2023-04-02T11:22:21.713Z,25.8253
2023-04-02T11:23:23.668Z,25.8401
2023-04-02T11:24:25.550Z,25.8674
2023-04-02T11:25:27.425Z,25.8781
2023-04-02T11:26:29.371Z,25.8728
2023-04-02T11:27:31.265Z,25.8755
2023-04-02T11:28:33.169Z,25.8855
2023-04-02T11:29:35.383Z,25.9155
2023-04-02T11:30:36.999Z,25.9108
2023-04-02T11:31:38.960Z,25.9346
2023-04-02T11:32:40.818Z,25.9527
2023-04-02T11:33:45.370Z,25.9422
2023-04-02T11:34:44.623Z,25.9586
2023-04-02T11:35:46.603Z,25.9780
2023-04-02T11:36:48.437Z,25.9878
2023-04-02T11:37:52.340Z,25.9911
2023-04-02T11:38:53.342Z,25.9796
2023-04-02T11:39:54.140Z,25.9843
2023-04-02T11:40:56.072Z,25.9829
2023-04-02T11:41:57.984Z,25.9866
2023-04-02T11:42:59.903Z,25.9999
2023-04-02T11:44:01.771Z,25.9917
2023-04-02T11:45:03.705Z,25.9414
2023-04-02T11:46:05.618Z,25.9426
2023-04-02T11:47:07.537Z,25.9763
2023-04-02T11:48:09.431Z,25.9724
2023-04-02T11:49:11.344Z,25.9835
2023-04-02T11:50:13.226Z,25.9749
2023-04-02T11:51:15.162Z,25.9687
2023-04-02T11:52:17.045Z,25.9568
2023-04-02T11:53:19.008Z,26.0012
2023-04-02T11:54:20.880Z,25.9923
2023-04-02T11:55:22.818Z,25.9804
2023-04-02T11:56:24.708Z,25.9833
2023-04-02T11:57:26.690Z,26.0001
2023-04-02T11:58:28.501Z,26.0092
2023-04-02T11:59:30.454Z,26.0194
2023-04-02T12:00:32.344Z,26.0248
2023-04-02T12:01:34.261Z,26.0264
2023-04-02T12:02:36.206Z,26.0560
2023-04-02T12:03:38.081Z,26.1002
2023-04-02T12:04:39.980Z,26.1024
2023-04-02T12:05:41.992Z,26.0644
2023-04-02T12:06:43.792Z,26.0809
2023-04-02T12:07:45.707Z,26.1347
2023-04-02T12:08:57.156Z,26.1577
2023-04-02T12:09:49.607Z,26.1786
2023-04-02T12:10:51.485Z,26.1871
2023-04-02T12:11:53.422Z,26.1721
2023-04-02T12:12:55.297Z,26.1967
2023-04-02T12:13:57.241Z,26.1996
2023-04-02T12:14:59.144Z,26.2238
2023-04-02T12:16:01.069Z,26.2294
2023-04-02T12:17:02.996Z,26.2094
2023-04-02T12:18:04.889Z,26.2140
2023-04-02T12:19:06.755Z,26.1918
2023-04-02T12:20:08.731Z,26.1655
2023-04-02T12:21:10.585Z,26.1413
2023-04-02T12:22:12.502Z,26.1491
2023-04-02T12:23:14.393Z,26.1437
2023-04-02T12:24:16.319Z,26.1425
2023-04-02T12:25:18.215Z,26.1682
2023-04-02T12:26:21.473Z,26.1739
2023-04-02T12:27:23.046Z,26.2023
2023-04-02T12:28:23.962Z,26.1815
2023-04-02T12:29:25.835Z,26.1986
2023-04-02T12:30:27.770Z,26.1961
2023-04-02T12:31:29.775Z,26.2191
2023-04-02T12:32:31.621Z,26.2470
2023-04-02T12:33:33.517Z,26.2509
2023-04-02T12:34:35.380Z,26.2316
2023-04-02T12:35:37.316Z,26.2300
2023-04-02T12:36:39.206Z,26.2442
2023-04-02T12:37:41.149Z,26.2331
2023-04-02T12:38:43.008Z,26.2380
2023-04-02T12:39:44.932Z,26.1875
2023-04-02T12:40:46.870Z,26.0474
2023-04-02T12:41:48.755Z,26.0503
2023-04-02T12:42:50.636Z,26.0595
2023-04-02T12:43:52.568Z,26.1185
2023-04-02T12:44:54.461Z,26.1236
2023-04-02T12:45:56.414Z,26.1680
2023-04-02T12:46:58.285Z,26.1610
2023-04-02T12:48:00.241Z,26.1154
2023-04-02T12:49:02.083Z,26.1119
2023-04-02T12:50:04.020Z,26.1445
2023-04-02T12:51:05.927Z,26.2008
2023-04-02T12:52:07.876Z,26.2257
2023-04-02T12:53:09.712Z,26.2327
2023-04-02T12:54:11.669Z,26.1649
2023-04-02T12:55:13.582Z,26.1836
2023-04-02T12:56:15.509Z,26.2004
2023-04-02T12:57:17.391Z,26.2154
2023-04-02T12:58:19.269Z,26.2152
2023-04-02T12:59:21.156Z,26.2479
2023-04-02T13:00:23.101Z,26.2199
2023-04-02T13:01:25.603Z,26.2696
2023-04-02T13:02:27.120Z,26.2565
2023-04-02T13:03:29.239Z,26.2618
2023-04-02T13:04:30.770Z,26.2805
2023-04-02T13:05:32.694Z,26.2885
2023-04-02T13:06:34.604Z,26.3015
2023-04-02T13:07:36.537Z,26.3019
2023-04-02T13:08:38.407Z,26.2998
2023-04-02T13:09:40.309Z,26.2982
2023-04-02T13:10:42.244Z,26.2982
2023-04-02T13:11:44.145Z,26.2914
2023-04-02T13:12:46.073Z,26.2976
2023-04-02T13:13:47.922Z,26.3025
2023-04-02T13:14:49.853Z,26.2889
2023-04-02T13:15:51.798Z,26.2485
2023-04-02T13:16:53.706Z,26.1842
2023-04-02T13:17:55.613Z,26.2516
2023-04-02T13:18:57.486Z,26.3009
2023-04-02T13:19:59.483Z,26.3167
2023-04-02T13:21:01.295Z,26.3171
2023-04-02T13:22:03.219Z,26.3218
2023-04-02T13:23:05.121Z,26.3292
2023-04-02T13:24:07.028Z,26.3360
2023-04-02T13:25:08.922Z,26.3456
2023-04-02T13:26:10.812Z,26.3233
2023-04-02T13:27:12.746Z,26.3138
2023-04-02T13:28:14.640Z,26.3011
2023-04-02T13:29:16.559Z,26.3033
2023-04-02T13:30:18.456Z,26.2982
2023-04-02T13:31:20.416Z,26.2972
2023-04-02T13:32:22.295Z,26.3083
2023-04-02T13:33:24.212Z,26.2914
2023-04-02T13:34:26.076Z,26.2912
2023-04-02T13:35:28.003Z,26.3257
2023-04-02T13:36:29.891Z,26.3346
2023-04-02T13:37:31.859Z,26.3380
2023-04-02T13:38:33.693Z,26.3253
2023-04-02T13:39:35.713Z,26.3495
2023-04-02T13:40:37.833Z,26.3594
2023-04-02T13:41:39.427Z,26.3791
2023-04-02T13:42:41.349Z,26.3808
2023-04-02T13:43:43.247Z,26.3762
2023-04-02T13:44:45.126Z,26.3701
2023-04-02T13:45:47.125Z,26.3898
2023-04-02T13:46:48.934Z,26.3964
2023-04-02T13:47:50.906Z,26.4255
2023-04-02T13:48:52.778Z,26.4229
2023-04-02T13:49:54.684Z,26.4212
2023-04-02T13:50:56.586Z,26.4247
2023-04-02T13:51:58.574Z,26.4399
2023-04-02T13:53:01.015Z,26.4284
2023-04-02T13:54:06.759Z,26.4586
2023-04-02T13:55:04.339Z,26.4373
2023-04-02T13:56:06.098Z,26.4165
2023-04-02T13:57:08.004Z,26.4282
2023-04-02T13:58:09.902Z,26.4375
2023-04-02T13:59:11.797Z,26.4391
2023-04-02T14:00:13.752Z,26.4545
2023-04-02T14:01:15.691Z,26.4455
2023-04-02T14:02:17.766Z,26.4724
2023-04-02T14:03:19.493Z,26.4463
2023-04-02T14:04:21.453Z,26.4572
2023-04-02T14:05:23.249Z,26.4625
2023-04-02T14:06:25.518Z,26.4383
2023-04-02T14:07:27.080Z,26.4364
2023-04-02T14:08:30.249Z,26.4525
2023-04-02T14:09:30.883Z,26.4463
2023-04-02T14:10:34.618Z,26.4373
2023-04-02T14:11:34.699Z,26.4311
2023-04-02T14:12:36.655Z,26.4331
2023-04-02T14:13:38.508Z,26.4457
2023-04-02T14:14:40.772Z,26.4436
2023-04-02T14:15:42.338Z,26.4397
2023-04-02T14:16:44.286Z,26.4305
2023-04-02T14:17:46.199Z,26.4264
2023-04-02T14:18:48.058Z,26.4467
2023-04-02T14:19:49.954Z,26.4467
2023-04-02T14:20:51.930Z,26.4496
2023-04-02T14:21:54.331Z,26.4412
2023-04-02T14:22:55.705Z,26.4483
2023-04-02T14:23:57.578Z,26.4570
2023-04-02T14:24:59.522Z,26.4757
2023-04-02T14:26:01.416Z,26.4578
2023-04-02T14:27:04.296Z,26.4685
2023-04-02T14:28:05.275Z,26.4619
2023-04-02T14:29:07.165Z,26.4580
2023-04-02T14:30:09.089Z,26.4662
2023-04-02T14:31:11.021Z,26.4718
2023-04-02T14:32:14.404Z,26.4711
2023-04-02T14:33:14.926Z,26.4792
2023-04-02T14:34:16.665Z,26.4668
2023-04-02T14:35:18.611Z,26.4508
2023-04-02T14:36:20.459Z,26.4498
2023-04-02T14:37:22.400Z,26.4036
2023-04-02T14:38:24.472Z,26.4245
2023-04-02T14:39:26.252Z,26.4284
2023-04-02T14:40:28.126Z,26.4518
2023-04-02T14:41:30.077Z,26.4514
2023-04-02T14:42:32.009Z,26.4284
2023-04-02T14:43:33.899Z,26.4274
2023-04-02T14:44:35.761Z,26.4471
2023-04-02T14:45:37.720Z,26.4580
2023-04-02T14:46:39.657Z,26.4459
2023-04-02T14:47:41.542Z,26.4586
2023-04-02T14:48:43.426Z,26.4586
2023-04-02T14:49:45.374Z,26.4449
2023-04-02T14:50:47.726Z,26.4434
2023-04-02T14:51:49.117Z,26.4477
2023-04-02T14:52:51.055Z,26.4288
2023-04-02T14:53:53.006Z,26.4455
2023-04-02T14:54:54.976Z,26.4391
2023-04-02T14:55:56.754Z,26.4307
2023-04-02T14:56:58.783Z,26.4249
2023-04-02T14:58:00.597Z,26.4163
2023-04-02T14:59:03.508Z,26.4075
2023-04-02T15:00:04.405Z,26.3988
2023-04-02T15:01:06.317Z,26.4142
2023-04-02T15:02:08.248Z,26.4214
2023-04-02T15:03:10.191Z,26.4145
2023-04-02T15:04:12.015Z,26.4155
2023-04-02T15:05:13.945Z,26.4255
2023-04-02T15:06:15.880Z,26.4301
2023-04-02T15:07:17.778Z,26.4171
2023-04-02T15:08:19.675Z,26.4223
2023-04-02T15:09:21.591Z,26.4027
2023-04-02T15:10:23.476Z,26.4288
2023-04-02T15:11:27.576Z,26.4200
2023-04-02T15:12:27.268Z,26.4069
2023-04-02T15:13:29.188Z,26.4182
2023-04-02T15:14:31.095Z,26.4184
2023-04-02T15:15:39.278Z,26.3995
2023-04-02T15:16:35.772Z,26.3976
2023-04-02T15:17:36.850Z,26.4251
2023-04-02T15:18:39.743Z,26.4196
2023-04-02T15:19:40.679Z,26.4270
2023-04-02T15:20:42.696Z,26.4173
2023-04-02T15:21:55.621Z,26.4138
2023-04-02T15:22:46.379Z,26.4177
2023-04-02T15:23:48.447Z,26.3917
2023-04-02T15:24:50.195Z,26.4110
2023-04-02T15:25:52.068Z,26.4153
2023-04-02T15:26:53.995Z,26.3836
2023-04-02T15:27:55.856Z,26.3912
2023-04-02T15:28:57.827Z,26.3960
2023-04-02T15:29:59.684Z,26.3845
2023-04-02T15:31:01.612Z,26.3802
2023-04-02T15:32:03.508Z,26.3775
2023-04-02T15:33:05.455Z,26.3664
2023-04-02T15:34:07.303Z,26.3586
2023-04-02T15:35:09.227Z,26.3695
2023-04-02T15:36:11.168Z,26.3670
2023-04-02T15:37:13.100Z,26.3797
2023-04-02T15:38:14.940Z,26.3660
2023-04-02T15:39:16.872Z,26.3530
2023-04-02T15:40:18.740Z,26.3623
2023-04-02T15:41:22.975Z,26.3588
2023-04-02T15:42:22.583Z,26.3317
2023-04-02T15:43:24.492Z,26.3541
2023-04-02T15:44:26.376Z,26.3358
2023-04-02T15:45:29.582Z,26.3304
2023-04-02T15:46:30.299Z,26.3391
2023-04-02T15:47:32.622Z,26.3253
2023-04-02T15:48:34.162Z,26.3272
2023-04-02T15:49:35.962Z,26.2945
2023-04-02T15:50:38.382Z,26.2937
2023-04-02T15:51:39.734Z,26.2756
2023-04-02T15:52:41.641Z,26.2789
2023-04-02T15:53:43.566Z,26.2848
2023-04-02T15:54:45.473Z,26.2571
2023-04-02T15:55:47.386Z,26.2514
2023-04-02T15:56:49.355Z,26.2341
2023-04-02T15:57:51.183Z,26.2331
2023-04-02T15:58:53.088Z,26.2261
2023-04-02T15:59:55.077Z,26.2214
2023-04-02T16:00:56.933Z,26.2158
2023-04-02T16:01:58.860Z,26.2384
2023-04-02T16:03:00.756Z,26.2177
2023-04-02T16:04:02.720Z,26.2148
2023-04-02T16:05:04.540Z,26.2199
2023-04-02T16:06:07.268Z,26.2119
2023-04-02T16:07:08.474Z,26.2080
2023-04-02T16:08:10.431Z,26.1852
2023-04-02T16:09:12.846Z,26.1893
2023-04-02T16:10:14.190Z,26.1895
2023-04-02T16:11:16.158Z,26.1866
2023-04-02T16:12:17.986Z,26.1875
2023-04-02T16:13:19.781Z,26.1830
2023-04-02T16:14:21.767Z,26.1780
2023-04-02T16:15:24.035Z,26.1793
2023-04-02T16:16:25.814Z,26.1608
2023-04-02T16:17:27.652Z,26.1671
2023-04-02T16:18:29.385Z,26.1719
2023-04-02T16:19:31.289Z,26.1536
2023-04-02T16:20:33.453Z,26.1528
2023-04-02T16:21:35.218Z,26.1472
2023-04-02T16:22:38.027Z,26.1376
2023-04-02T16:23:39.081Z,26.1425
2023-04-02T16:24:40.827Z,26.1386
2023-04-02T16:25:42.826Z,26.1246
2023-04-02T16:26:44.651Z,26.1326
2023-04-02T16:27:46.668Z,26.1279
2023-04-02T16:28:48.478Z,26.1359
2023-04-02T16:29:54.201Z,26.1125
2023-04-02T16:30:52.331Z,26.1337
2023-04-02T16:31:54.196Z,26.1256
2023-04-02T16:32:56.227Z,26.1293
2023-04-02T16:33:58.714Z,26.1113
2023-04-02T16:35:15.232Z,26.1045
2023-04-02T16:36:02.894Z,26.0792
2023-04-02T16:37:03.724Z,26.0848
2023-04-02T16:38:05.597Z,26.0948
2023-04-02T16:39:07.536Z,26.1000
2023-04-02T16:40:09.447Z,26.0850
2023-04-02T16:41:11.397Z,26.0770
2023-04-02T16:42:13.227Z,26.0720
2023-04-02T16:43:15.161Z,26.0823
2023-04-02T16:44:17.040Z,26.0753
2023-04-02T16:45:19.356Z,26.0796
2023-04-02T16:46:31.682Z,26.0811
2023-04-02T16:47:22.830Z,26.0895
2023-04-02T16:48:24.685Z,26.0642
2023-04-02T16:49:26.617Z,26.0579
2023-04-02T16:50:28.479Z,26.0648
2023-04-02T16:51:30.403Z,26.0675
2023-04-02T16:52:32.292Z,26.0466
2023-04-02T16:53:34.228Z,26.0404
2023-04-02T16:54:36.121Z,26.0281
2023-04-02T16:55:38.014Z,26.0342
2023-04-02T16:56:39.930Z,26.0435
2023-04-02T16:57:41.843Z,26.0429
2023-04-02T16:58:43.762Z,26.0312
2023-04-02T16:59:45.681Z,26.0414
2023-04-02T17:00:47.567Z,26.0375
2023-04-02T17:01:49.490Z,26.0197
2023-04-02T17:02:51.410Z,26.0310
2023-04-02T17:03:53.557Z,26.0283
2023-04-02T17:04:55.171Z,26.0289
2023-04-02T17:05:57.112Z,26.0139
2023-04-02T17:06:59.278Z,26.0104
2023-04-02T17:08:00.900Z,26.0084
2023-04-02T17:09:02.801Z,26.0082
2023-04-02T17:10:04.693Z,26.0180
2023-04-02T17:11:06.727Z,26.0234
2023-04-02T17:12:08.595Z,26.0162
2023-04-02T17:13:10.456Z,26.0166
2023-04-02T17:14:12.395Z,26.0020
2023-04-02T17:15:20.951Z,25.9944
2023-04-02T17:16:16.154Z,25.9977
2023-04-02T17:17:18.057Z,26.0077
2023-04-02T17:18:20.162Z,25.9870
2023-04-02T17:19:21.880Z,25.9858
2023-04-02T17:20:23.749Z,25.9991
2023-04-02T17:21:25.680Z,26.0061
2023-04-02T17:22:27.571Z,26.0028
2023-04-02T17:23:29.488Z,26.0040
2023-04-02T17:24:31.374Z,26.0026
2023-04-02T17:25:33.301Z,26.0036
2023-04-02T17:26:35.190Z,25.9911
2023-04-02T17:27:37.123Z,25.9948
2023-04-02T17:28:39.011Z,25.9866
2023-04-02T17:29:40.970Z,26.0034
2023-04-02T17:30:42.809Z,25.9999
2023-04-02T17:31:44.770Z,25.9767
2023-04-02T17:32:46.721Z,25.9827
2023-04-02T17:33:48.557Z,25.9823
2023-04-02T17:34:50.436Z,26.0102
2023-04-02T17:35:52.392Z,26.0256
2023-04-02T17:36:55.247Z,26.0186
2023-04-02T17:37:56.195Z,26.0071
2023-04-02T17:38:58.191Z,25.9911
2023-04-02T17:39:59.975Z,25.9880
2023-04-02T17:41:01.856Z,25.9969
2023-04-02T17:42:04.035Z,25.9825
2023-04-02T17:43:05.723Z,25.9716
2023-04-02T17:44:07.790Z,25.9823
2023-04-02T17:45:09.497Z,25.9866
2023-04-02T17:46:11.551Z,25.9547
2023-04-02T17:47:14.385Z,25.8467
2023-04-02T17:48:16.370Z,25.8025
2023-04-02T17:49:17.317Z,25.8814
2023-04-02T17:50:19.078Z,25.9301
2023-04-02T17:51:20.982Z,26.0055
2023-04-02T17:52:22.915Z,26.0153
2023-04-02T17:53:24.760Z,26.0511
2023-04-02T17:54:26.898Z,26.0942
2023-04-02T17:55:28.561Z,26.1152
2023-04-02T17:56:30.988Z,26.1067
2023-04-02T17:57:32.861Z,26.1427
2023-04-02T17:58:34.299Z,26.1207
2023-04-02T17:59:36.205Z,26.1326
2023-04-02T18:00:38.821Z,26.1330
2023-04-02T18:01:40.098Z,26.1445
2023-04-02T18:02:42.041Z,26.1324
2023-04-02T18:03:43.867Z,26.1417
2023-04-02T18:04:45.894Z,26.1493
2023-04-02T18:05:47.757Z,26.1811
2023-04-02T18:06:49.550Z,26.1916
2023-04-02T18:07:51.599Z,26.1435
2023-04-02T18:08:53.343Z,26.1037
2023-04-02T18:09:55.227Z,26.1199
2023-04-02T18:10:57.206Z,26.1692
2023-04-02T18:12:00.534Z,26.1671
2023-04-02T18:23:41.598Z,25.8140
2023-04-02T18:24:43.518Z,25.7167
